createdAt,value
2019-05-26T00:02:50.948Z,100313.09
2019-05-26T00:07:55.308Z,100307.44
2019-05-26T00:12:59.702Z,100306.36
2019-05-26T00:18:04.116Z,100301.02
2019-05-26T00:23:08.963Z,100292.21
2019-05-26T00:28:13.332Z,100291.81
2019-05-26T00:33:17.670Z,100281.89
2019-05-26T00:38:22.169Z,100273.91
2019-05-26T00:43:26.587Z,100270.13
2019-05-26T00:48:31.015Z,100259.69
2019-05-26T00:53:36.441Z,100265.62
2019-05-26T00:58:40.818Z,100264.80
2019-05-26T01:03:45.164Z,100258.53
2019-05-26T01:08:49.514Z,100246.82
2019-05-26T01:13:53.841Z,100267.33
2019-05-26T01:18:58.198Z,100271.28
2019-05-26T01:24:02.572Z,100263.37
2019-05-26T01:29:06.993Z,100259.48
2019-05-26T01:34:11.410Z,100266.27
2019-05-26T01:39:15.778Z,100264.16
2019-05-26T01:44:20.116Z,100265.62
2019-05-26T01:49:24.509Z,100276.01
2019-05-26T01:54:28.949Z,100275.38
2019-05-26T01:59:33.351Z,100272.00
2019-05-26T02:04:38.775Z,100266.47
2019-05-26T02:09:43.204Z,100265.33
2019-05-26T02:14:47.589Z,100257.17
2019-05-26T02:19:51.971Z,100253.66
2019-05-26T02:24:56.327Z,100257.05
2019-05-26T02:30:00.697Z,100250.36
2019-05-26T02:35:08.775Z,100255.84
2019-05-26T02:40:13.368Z,100257.77
2019-05-26T02:45:18.560Z,100265.42
2019-05-26T02:50:24.452Z,100263.05
2019-05-26T02:55:28.918Z,100258.84
2019-05-26T03:00:42.562Z,100261.53
2019-05-26T03:05:46.935Z,100249.61
2019-05-26T03:10:51.702Z,100243.05
2019-05-26T03:15:57.014Z,100239.68
2019-05-26T03:21:03.351Z,100234.06
2019-05-26T03:26:07.760Z,100245.27
2019-05-26T03:31:12.152Z,100244.84
2019-05-26T03:36:16.563Z,100239.75
2019-05-26T03:41:21.999Z,100250.57
2019-05-26T03:46:26.391Z,100247.50
2019-05-26T03:51:30.721Z,100246.39
2019-05-26T03:56:35.143Z,100261.13
2019-05-26T04:01:39.485Z,100255.86
2019-05-26T04:06:43.859Z,100255.25
2019-05-26T04:11:48.214Z,100262.80
2019-05-26T04:16:56.120Z,100256.03
2019-05-26T04:21:58.685Z,100256.03
2019-05-26T04:27:03.061Z,100252.39
2019-05-26T04:32:07.510Z,100252.45
2019-05-26T04:37:11.904Z,100235.23
2019-05-26T04:42:17.368Z,100228.25
2019-05-26T04:47:21.760Z,100224.41
2019-05-26T04:52:26.066Z,100225.97
2019-05-26T04:57:30.662Z,100226.14
2019-05-26T05:02:35.188Z,100223.79
2019-05-26T05:07:39.553Z,100224.92
2019-05-26T05:12:43.990Z,100236.37
2019-05-26T05:17:48.403Z,100231.53
2019-05-26T05:22:52.775Z,100234.70
2019-05-26T05:27:57.130Z,100239.84
2019-05-26T05:33:01.513Z,100234.78
2019-05-26T05:38:05.888Z,100229.26
2019-05-26T05:43:11.312Z,100231.95
2019-05-26T05:48:15.778Z,100228.27
2019-05-26T05:53:20.364Z,100228.88
2019-05-26T05:58:24.725Z,100226.16
2019-05-26T06:03:29.155Z,100229.91
2019-05-26T06:08:33.519Z,100226.05
2019-05-26T06:13:37.945Z,100219.20
2019-05-26T06:18:42.302Z,100232.58
2019-05-26T06:23:46.671Z,100230.41
2019-05-26T06:28:52.514Z,100231.69
2019-05-26T06:33:57.237Z,100226.53
2019-05-26T06:39:02.168Z,100221.55
2019-05-26T06:44:06.530Z,100218.84
2019-05-26T06:49:10.966Z,100214.80
2019-05-26T06:54:15.322Z,100216.89
2019-05-26T06:59:19.678Z,100216.89
2019-05-26T07:04:24.161Z,100210.98
2019-05-26T07:09:28.537Z,100211.39
2019-05-26T07:14:32.888Z,100210.35
2019-05-26T07:19:37.272Z,100205.89
2019-05-26T07:24:43.307Z,100215.78
2019-05-26T07:29:47.726Z,100215.56
2019-05-26T07:34:52.109Z,100207.78
2019-05-26T07:39:56.595Z,100207.28
2019-05-26T07:45:01.223Z,100205.90
2019-05-26T07:50:07.230Z,100199.48
2019-05-26T07:55:12.985Z,100185.66
2019-05-26T08:00:17.649Z,100184.67
2019-05-26T08:05:22.010Z,100180.84
2019-05-26T08:10:26.499Z,100180.15
2019-05-26T08:15:30.926Z,100177.16
2019-05-26T08:20:35.263Z,100169.27
2019-05-26T08:25:39.620Z,100169.06
2019-05-26T08:30:44.012Z,100161.00
2019-05-26T08:35:48.422Z,100151.94
2019-05-26T08:40:52.785Z,100144.40
2019-05-26T08:45:57.147Z,100139.39
2019-05-26T08:51:02.609Z,100135.13
2019-05-26T08:56:07.208Z,100127.53
2019-05-26T09:01:13.340Z,100131.52
2019-05-26T09:06:17.742Z,100126.89
2019-05-26T09:11:22.995Z,100120.73
2019-05-26T09:16:27.344Z,100109.98
2019-05-26T09:21:31.694Z,100109.95
2019-05-26T09:26:36.131Z,100098.81
2019-05-26T09:31:40.479Z,100100.67
2019-05-26T09:36:44.859Z,100093.05
2019-05-26T09:41:49.195Z,100092.65
2019-05-26T09:46:53.586Z,100081.75
2019-05-26T09:51:59.017Z,100083.14
2019-05-26T09:57:03.355Z,100071.89
2019-05-26T10:02:07.774Z,100075.34
2019-05-26T10:07:15.787Z,100070.45
2019-05-26T10:12:18.346Z,100070.38
2019-05-26T10:17:23.361Z,100056.67
2019-05-26T10:22:28.107Z,100060.32
2019-05-26T10:27:33.365Z,100053.53
2019-05-26T10:32:37.819Z,100047.63
2019-05-26T10:37:42.170Z,100043.03
2019-05-26T10:42:46.522Z,100050.56
2019-05-26T10:47:51.968Z,100046.95
2019-05-26T10:52:56.513Z,100034.92
2019-05-26T10:58:00.860Z,100033.92
2019-05-26T11:03:05.282Z,100021.69
2019-05-26T11:08:09.627Z,100018.02
2019-05-26T11:13:14.939Z,100015.27
2019-05-26T11:18:21.138Z,100001.74
2019-05-26T11:23:26.391Z,100000.97
2019-05-26T11:28:31.202Z,99994.04
2019-05-26T11:33:36.101Z,99988.51
2019-05-26T11:38:40.774Z,99985.53
2019-05-26T11:43:45.197Z,99972.90
2019-05-26T11:48:49.565Z,99969.77
2019-05-26T11:53:54.076Z,99967.09
2019-05-26T11:58:58.435Z,99956.05
2019-05-26T12:04:02.793Z,99942.28
2019-05-26T12:09:09.122Z,99933.70
2019-05-26T12:14:13.501Z,99923.54
2019-05-26T12:19:17.861Z,99923.88
2019-05-26T12:24:22.225Z,99922.79
2019-05-26T12:29:26.594Z,99923.05
2019-05-26T12:34:30.932Z,99909.89
2019-05-26T12:39:35.328Z,99903.12
2019-05-26T12:44:48.990Z,99894.84
2019-05-26T12:49:45.714Z,99895.96
2019-05-26T12:54:50.067Z,99903.50
2019-05-26T12:59:54.459Z,99888.41
2019-05-26T13:04:58.862Z,99895.29
2019-05-26T13:10:04.366Z,99879.66
2019-05-26T13:15:10.283Z,99878.06
2019-05-26T13:20:15.628Z,99870.15
2019-05-26T13:25:21.579Z,99867.27
2019-05-26T13:30:26.333Z,99866.05
2019-05-26T13:35:30.710Z,99865.09
2019-05-26T13:40:35.056Z,99857.82
2019-05-26T13:45:39.431Z,99858.00
2019-05-26T13:50:43.834Z,99847.13
2019-05-26T13:55:48.186Z,99854.32
2019-05-26T14:00:52.550Z,99840.89
2019-05-26T14:05:56.949Z,99840.89
2019-05-26T14:11:01.488Z,99843.78
2019-05-26T14:16:06.034Z,99847.43
2019-05-26T14:21:10.376Z,99847.69
2019-05-26T14:26:14.804Z,99838.48
2019-05-26T14:31:19.157Z,99833.14
2019-05-26T14:36:23.550Z,99828.14
2019-05-26T14:41:28.063Z,99832.80
2019-05-26T14:46:34.577Z,99821.25
2019-05-26T14:51:38.669Z,99824.54
2019-05-26T14:56:43.040Z,99819.11
2019-05-26T15:01:47.413Z,99813.25
2019-05-26T15:06:51.764Z,99807.92
2019-05-26T15:11:56.157Z,99807.11
2019-05-26T15:17:00.500Z,99803.08
2019-05-26T15:22:05.051Z,99803.08
2019-05-26T15:27:09.535Z,99800.28
2019-05-26T15:32:13.903Z,99798.25
2019-05-26T15:37:18.307Z,99794.97
2019-05-26T15:42:24.315Z,99800.17
2019-05-26T15:47:28.656Z,99797.39
2019-05-26T15:52:36.403Z,99785.61
2019-05-26T15:57:41.812Z,99781.61
2019-05-26T16:02:49.976Z,99785.13
2019-05-26T16:07:54.606Z,99780.14
2019-05-26T16:12:59.013Z,99784.41
2019-05-26T16:18:05.013Z,99784.27
2019-05-26T16:23:09.375Z,99778.59
2019-05-26T16:28:15.644Z,99782.69
2019-05-26T16:33:23.334Z,99782.69
2019-05-26T16:38:27.688Z,99770.46
2019-05-26T16:43:32.232Z,99771.67
2019-05-26T16:48:38.901Z,99775.66
2019-05-26T16:53:43.306Z,99763.80
2019-05-26T16:58:47.667Z,99763.45
2019-05-26T17:03:52.001Z,99761.98
2019-05-26T17:08:56.326Z,99761.14
2019-05-26T17:14:00.732Z,99759.54
2019-05-26T17:19:05.108Z,99760.64
2019-05-26T17:24:09.490Z,99763.18
2019-05-26T17:29:13.907Z,99758.47
2019-05-26T17:34:18.295Z,99753.36
2019-05-26T17:39:22.658Z,99750.20
2019-05-26T17:44:27.047Z,99753.97
2019-05-26T17:49:32.519Z,99749.11
2019-05-26T17:54:36.907Z,99749.15
2019-05-26T17:59:41.258Z,99746.73
2019-05-26T18:04:45.641Z,99742.49
2019-05-26T18:09:50.134Z,99742.58
2019-05-26T18:14:54.583Z,99741.44
2019-05-26T18:19:59.016Z,99741.56
2019-05-26T18:25:04.620Z,99740.30
2019-05-26T18:30:10.362Z,99737.47
2019-05-26T18:35:14.737Z,99732.00
2019-05-26T18:40:19.225Z,99731.71
2019-05-26T18:45:23.566Z,99735.75
2019-05-26T18:50:27.885Z,99735.88
2019-05-26T18:55:32.297Z,99745.52
2019-05-26T19:00:36.916Z,99745.62
2019-05-26T19:05:41.354Z,99737.28
2019-05-26T19:10:46.899Z,99740.42
2019-05-26T19:15:51.247Z,99742.60
2019-05-26T19:20:55.759Z,99740.94
2019-05-26T19:26:00.234Z,99748.48
2019-05-26T19:31:06.221Z,99741.78
2019-05-26T19:36:11.908Z,99742.94
2019-05-26T19:41:16.335Z,99736.59
2019-05-26T19:46:20.804Z,99736.30
2019-05-26T19:51:25.159Z,99737.20
2019-05-26T19:56:30.118Z,99733.05
2019-05-26T20:01:34.490Z,99735.27
2019-05-26T20:06:38.898Z,99730.88
2019-05-26T20:11:44.152Z,99740.89
2019-05-26T20:16:48.675Z,99730.20
2019-05-26T20:21:53.079Z,99735.09
2019-05-26T20:26:57.598Z,99734.17
2019-05-26T20:32:01.975Z,99728.08
2019-05-26T20:37:06.319Z,99732.38
2019-05-26T20:42:10.691Z,99730.09
2019-05-26T20:47:15.072Z,99736.08
2019-05-26T20:52:19.445Z,99727.72
2019-05-26T20:57:23.859Z,99728.08
2019-05-26T21:02:28.222Z,99731.98
2019-05-26T21:07:32.541Z,99730.66
2019-05-26T21:12:37.490Z,99729.97
2019-05-26T21:17:42.822Z,99733.91
2019-05-26T21:22:47.528Z,99738.92
2019-05-26T21:27:51.925Z,99736.74
2019-05-26T21:32:56.267Z,99740.55
2019-05-26T21:38:00.606Z,99739.58
2019-05-26T21:43:05.063Z,99726.80
2019-05-26T21:48:09.411Z,99720.08
2019-05-26T21:53:13.766Z,99722.36
2019-05-26T21:58:19.221Z,99714.00
2019-05-26T22:03:24.657Z,99717.76
2019-05-26T22:08:29.010Z,99719.30
2019-05-26T22:13:33.385Z,99717.13
2019-05-26T22:18:37.740Z,99712.02
2019-05-26T22:23:42.137Z,99710.25
2019-05-26T22:28:46.501Z,99701.83
2019-05-26T22:33:50.850Z,99706.20
2019-05-26T22:38:56.211Z,99695.70
2019-05-26T22:44:00.594Z,99691.62
2019-05-26T22:49:05.047Z,99695.97
2019-05-26T22:54:09.386Z,99684.30
2019-05-26T22:59:13.772Z,99690.11
2019-05-26T23:04:18.095Z,99684.88
2019-05-26T23:09:22.482Z,99681.66
2019-05-26T23:14:26.822Z,99682.23
2019-05-26T23:19:31.171Z,99685.41
2019-05-26T23:24:35.554Z,99681.34
2019-05-26T23:29:39.922Z,99684.80
2019-05-26T23:34:44.378Z,99676.28
2019-05-26T23:39:48.753Z,99670.75
2019-05-26T23:44:53.134Z,99664.69
2019-05-26T23:49:57.493Z,99663.58
2019-05-26T23:55:01.838Z,99664.17
